• Join FlightAware (Why Join?)
  • Login
  • US Flag 
12:44PM EDT


 

Airport Tracker/Info


-or-


 

Live Flight TrackerFlight Track Log ✈ SKW6335 ✈ 27-Apr-2013 ✈ KLAX - KSAN

Flight Track Log - Related Links

Times and Time Zones

All times are in EDT time to prevent confusion due to time zone crossing. See the SKW6335 flight status page for this flight to view local times or setup timezone preferences in your user account.

Time Position Orientation Groundspeed Altitude Reporting Facility
EDT Latitude Longitude Course Direction KTS MPH feet Rate Location/Type
06:03PM 33.9333 -118.4333 139° Southeast 149 171 1,800  Level Southern California TRACON
06:04PM 33.9000 -118.4667 220° Southwest 191 220 3,700 1,860 Climbing Southern California TRACON
06:05PM 33.8500 -118.4667 180° South 195 224 5,600 1,920 Climbing Southern California TRACON
06:06PM 33.8106 -118.4689 183° South 191 220 7,000 1,800 Climbing Los Angeles Center
06:07PM 33.6897 -118.1495 139° Southeast  Level Estimated
06:07PM 33.7578 -118.4717 183° South 192 221 8,700  Level Los Angeles Center
06:08PM 33.6266 -118.0847 139° Southeast  Level FlightAware Approximate
06:08PM 33.7061 -118.4300 146° Southeast 226 260 9,000  Level Los Angeles Center
06:09PM 33.6619 -118.3669 130° Southeast 244 281 8,900 -60 Descending Los Angeles Center
06:10PM 33.6178 -118.2858 123° Southeast 248 285 8,900  Level Los Angeles Center
06:11PM 33.5789 -118.2183 125° Southeast 247 284 8,900  Level Los Angeles Center
06:12PM 33.5417 -118.1511 124° Southeast 246 283 8,900  Level Los Angeles Center
06:13PM 33.4972 -118.0692 123° Southeast 245 282 8,900  Level Los Angeles Center
06:14PM 33.4597 -118.0014 124° Southeast 245 282 8,900  Level Los Angeles Center
06:15PM 33.4222 -117.9333 123° Southeast 246 283 8,900  Level Los Angeles Center
06:16PM 33.3833 -117.8500 119° Southeast 244 281 8,900  Level Southern California TRACON
06:17PM 33.3461 -117.8006 132° Southeast 243 280 8,900  Level Los Angeles Center
06:18PM 33.3092 -117.7333 123° Southeast 243 280 8,900  Level Los Angeles Center
06:19PM 33.2656 -117.6539 123° Southeast 241 277 8,900  Level Los Angeles Center
06:20PM 33.2261 -117.5897 126° Southeast 240 276 8,900  Level Los Angeles Center
06:21PM 33.1667 -117.5500 151° Southeast 248 285 8,900 -300 Level Southern California TRACON
06:22PM 33.1167 -117.5000 140° Southeast 261 300 8,400 -540 Descending Southern California TRACON
06:22PM 33.0972 -117.4872 151° Southeast 253 291 8,200 -360 Descending Los Angeles Center
06:23PM 33.0353 -117.4378 146° Southeast 265 305 7,900 -540 Descending Los Angeles Center
06:25PM 32.9758 -117.3875 145° Southeast 263 303 7,100 -660 Descending Los Angeles Center
06:25PM 32.9333 -117.3500 143° Southeast 264 304 6,900 -180 Descending Southern California TRACON
06:26PM 32.8833 -117.2833 132° Southeast 250 288 6,900  Level Southern California TRACON
06:27PM 32.8619 -117.2633 142° Southeast 254 292 6,900 -480 Level Los Angeles Center
06:28PM 32.8256 -117.1953 122° Southeast 247 284 6,200 -840 Descending Los Angeles Center
06:29PM 32.7847 -117.1208 123° Southeast 257 296 5,200 -840 Descending Los Angeles Center
06:29PM 32.7667 -117.0833 120° Southeast 256 295 5,000 -660 Descending Southern California TRACON
06:30PM 32.7333 -117.0167 121° Southeast 231 266 4,300 -660 Descending Southern California TRACON
06:31PM 32.7000 -117.0000 157° South 219 252 3,700 -660 Descending Southern California TRACON
06:32PM 32.7000 -117.0667 270° West 178 205 3,000 -720 Descending Southern California TRACON